sensor_id;sensor_type;location;lat;lon;timestamp;temperature;humidity
34768;DHT22;21755;43.608;1.236;2022-11-15T00:00:19;10.90;99.90
34768;DHT22;21755;43.608;1.236;2022-11-15T00:02:45;10.90;99.90
34768;DHT22;21755;43.608;1.236;2022-11-15T00:05:11;10.90;99.90
34768;DHT22;21755;43.608;1.236;2022-11-15T00:07:36;10.90;99.90
34768;DHT22;21755;43.608;1.236;2022-11-15T00:10:03;10.90;99.90
34768;DHT22;21755;43.608;1.236;2022-11-15T00:12:29;10.80;99.90
34768;DHT22;21755;43.608;1.236;2022-11-15T00:14:55;10.80;99.90
34768;DHT22;21755;43.608;1.236;2022-11-15T00:17:21;10.80;99.90
34768;DHT22;21755;43.608;1.236;2022-11-15T00:19:46;10.80;99.90
34768;DHT22;21755;43.608;1.236;2022-11-15T00:22:12;10.80;99.90
34768;DHT22;21755;43.608;1.236;2022-11-15T00:24:38;10.80;99.90
34768;DHT22;21755;43.608;1.236;2022-11-15T00:27:04;10.80;99.90
34768;DHT22;21755;43.608;1.236;2022-11-15T00:29:30;10.80;99.90
34768;DHT22;21755;43.608;1.236;2022-11-15T00:31:56;10.80;99.90
34768;DHT22;21755;43.608;1.236;2022-11-15T00:34:21;10.70;99.90
34768;DHT22;21755;43.608;1.236;2022-11-15T00:36:47;10.80;99.90
34768;DHT22;21755;43.608;1.236;2022-11-15T00:39:13;10.70;99.90
34768;DHT22;21755;43.608;1.236;2022-11-15T00:41:39;10.70;99.90
34768;DHT22;21755;43.608;1.236;2022-11-15T00:44:05;10.80;99.90
34768;DHT22;21755;43.608;1.236;2022-11-15T00:46:31;10.80;99.90
34768;DHT22;21755;43.608;1.236;2022-11-15T00:48:57;10.70;99.90
34768;DHT22;21755;43.608;1.236;2022-11-15T00:51:23;10.70;99.90
34768;DHT22;21755;43.608;1.236;2022-11-15T00:53:49;10.70;99.90
34768;DHT22;21755;43.608;1.236;2022-11-15T00:56:14;10.80;99.90
34768;DHT22;21755;43.608;1.236;2022-11-15T00:58:40;10.80;99.90
34768;DHT22;21755;43.608;1.236;2022-11-15T01:01:08;10.70;99.90
34768;DHT22;21755;43.608;1.236;2022-11-15T01:03:35;10.80;99.90
34768;DHT22;21755;43.608;1.236;2022-11-15T01:06:01;10.80;99.90
34768;DHT22;21755;43.608;1.236;2022-11-15T01:08:27;10.90;99.90
34768;DHT22;21755;43.608;1.236;2022-11-15T01:10:53;10.90;99.90
34768;DHT22;21755;43.608;1.236;2022-11-15T01:13:19;11.00;99.90
34768;DHT22;21755;43.608;1.236;2022-11-15T01:15:45;10.90;99.90
34768;DHT22;21755;43.608;1.236;2022-11-15T01:18:11;11.00;99.90
34768;DHT22;21755;43.608;1.236;2022-11-15T01:20:43;11.00;99.90
34768;DHT22;21755;43.608;1.236;2022-11-15T01:23:09;11.00;99.90
34768;DHT22;21755;43.608;1.236;2022-11-15T01:25:35;11.00;99.90
34768;DHT22;21755;43.608;1.236;2022-11-15T01:28:01;11.00;99.90
34768;DHT22;21755;43.608;1.236;2022-11-15T01:30:27;11.00;99.90
34768;DHT22;21755;43.608;1.236;2022-11-15T01:32:53;11.00;99.90
34768;DHT22;21755;43.608;1.236;2022-11-15T01:35:20;10.90;99.90
34768;DHT22;21755;43.608;1.236;2022-11-15T01:37:46;10.90;99.90
34768;DHT22;21755;43.608;1.236;2022-11-15T01:40:12;10.90;99.90
34768;DHT22;21755;43.608;1.236;2022-11-15T01:46:32;10.80;99.90
34768;DHT22;21755;43.608;1.236;2022-11-15T01:49:02;10.80;99.90
34768;DHT22;21755;43.608;1.236;2022-11-15T01:51:32;10.90;99.90
34768;DHT22;21755;43.608;1.236;2022-11-15T01:54:03;10.90;99.90
34768;DHT22;21755;43.608;1.236;2022-11-15T01:56:37;10.90;99.90
34768;DHT22;21755;43.608;1.236;2022-11-15T01:59:05;10.90;99.90
34768;DHT22;21755;43.608;1.236;2022-11-15T02:01:33;10.90;99.90
34768;DHT22;21755;43.608;1.236;2022-11-15T02:06:38;11.00;99.90
34768;DHT22;21755;43.608;1.236;2022-11-15T02:09:04;11.10;99.90
34768;DHT22;21755;43.608;1.236;2022-11-15T02:11:31;11.10;99.90
34768;DHT22;21755;43.608;1.236;2022-11-15T02:13:58;11.10;99.90
34768;DHT22;21755;43.608;1.236;2022-11-15T02:16:44;11.20;99.90
34768;DHT22;21755;43.608;1.236;2022-11-15T02:24:50;11.30;99.90
34768;DHT22;21755;43.608;1.236;2022-11-15T02:33:44;11.30;99.90
34768;DHT22;21755;43.608;1.236;2022-11-15T02:36:10;11.40;99.90
34768;DHT22;21755;43.608;1.236;2022-11-15T02:39:18;11.40;99.90
34768;DHT22;21755;43.608;1.236;2022-11-15T02:42:11;11.40;99.90
34768;DHT22;21755;43.608;1.236;2022-11-15T02:44:59;11.40;99.90
34768;DHT22;21755;43.608;1.236;2022-11-15T02:47:31;11.40;99.90
34768;DHT22;21755;43.608;1.236;2022-11-15T02:50:03;11.50;99.90
34768;DHT22;21755;43.608;1.236;2022-11-15T02:52:30;11.40;99.90
34768;DHT22;21755;43.608;1.236;2022-11-15T02:54:58;11.40;99.90
34768;DHT22;21755;43.608;1.236;2022-11-15T02:58:05;11.40;99.90
34768;DHT22;21755;43.608;1.236;2022-11-15T03:00:35;11.40;99.90
34768;DHT22;21755;43.608;1.236;2022-11-15T03:06:35;11.30;99.90
34768;DHT22;21755;43.608;1.236;2022-11-15T03:09:12;11.30;99.90
34768;DHT22;21755;43.608;1.236;2022-11-15T03:11:46;11.30;99.90
34768;DHT22;21755;43.608;1.236;2022-11-15T03:14:25;11.30;99.90
34768;DHT22;21755;43.608;1.236;2022-11-15T03:19:47;11.40;99.90
34768;DHT22;21755;43.608;1.236;2022-11-15T03:22:22;11.40;99.90
34768;DHT22;21755;43.608;1.236;2022-11-15T03:24:53;11.40;99.90
34768;DHT22;21755;43.608;1.236;2022-11-15T03:27:22;11.30;99.90
34768;DHT22;21755;43.608;1.236;2022-11-15T03:29:55;11.30;99.90
34768;DHT22;21755;43.608;1.236;2022-11-15T03:32:28;11.30;99.90
34768;DHT22;21755;43.608;1.236;2022-11-15T03:38:21;11.30;99.90
34768;DHT22;21755;43.608;1.236;2022-11-15T03:41:55;11.30;99.90
34768;DHT22;21755;43.608;1.236;2022-11-15T03:44:08;11.20;99.90
34768;DHT22;21755;43.608;1.236;2022-11-15T03:46:42;11.30;99.90
34768;DHT22;21755;43.608;1.236;2022-11-15T03:49:17;11.30;99.90
34768;DHT22;21755;43.608;1.236;2022-11-15T03:51:45;11.30;99.90
34768;DHT22;21755;43.608;1.236;2022-11-15T03:54:12;11.40;99.90
34768;DHT22;21755;43.608;1.236;2022-11-15T03:56:38;11.40;99.90
34768;DHT22;21755;43.608;1.236;2022-11-15T03:59:04;11.60;99.90
34768;DHT22;21755;43.608;1.236;2022-11-15T04:01:30;11.70;99.90
34768;DHT22;21755;43.608;1.236;2022-11-15T04:03:55;11.70;99.90
34768;DHT22;21755;43.608;1.236;2022-11-15T04:06:21;11.80;99.90
34768;DHT22;21755;43.608;1.236;2022-11-15T04:08:47;11.90;99.90
34768;DHT22;21755;43.608;1.236;2022-11-15T04:11:13;12.00;99.90
34768;DHT22;21755;43.608;1.236;2022-11-15T04:13:39;12.20;99.90
34768;DHT22;21755;43.608;1.236;2022-11-15T04:16:05;12.20;99.90
34768;DHT22;21755;43.608;1.236;2022-11-15T04:18:31;12.20;99.90
34768;DHT22;21755;43.608;1.236;2022-11-15T04:20:56;12.30;99.90
34768;DHT22;21755;43.608;1.236;2022-11-15T04:23:41;12.40;99.90
34768;DHT22;21755;43.608;1.236;2022-11-15T04:26:21;12.50;99.90
34768;DHT22;21755;43.608;1.236;2022-11-15T04:28:47;12.50;99.90
34768;DHT22;21755;43.608;1.236;2022-11-15T04:31:31;12.60;99.90
34768;DHT22;21755;43.608;1.236;2022-11-15T04:33:57;12.50;99.90
34768;DHT22;21755;43.608;1.236;2022-11-15T04:36:23;12.60;99.90
34768;DHT22;21755;43.608;1.236;2022-11-15T04:39:08;12.60;99.90
34768;DHT22;21755;43.608;1.236;2022-11-15T04:41:34;12.70;99.90
34768;DHT22;21755;43.608;1.236;2022-11-15T04:44:00;12.70;99.90
34768;DHT22;21755;43.608;1.236;2022-11-15T04:46:26;12.70;99.90
34768;DHT22;21755;43.608;1.236;2022-11-15T04:48:53;12.80;99.90
34768;DHT22;21755;43.608;1.236;2022-11-15T04:51:19;12.80;99.90
34768;DHT22;21755;43.608;1.236;2022-11-15T04:53:45;12.80;99.90
34768;DHT22;21755;43.608;1.236;2022-11-15T04:56:11;12.80;99.90
34768;DHT22;21755;43.608;1.236;2022-11-15T04:58:37;12.90;99.90
34768;DHT22;21755;43.608;1.236;2022-11-15T05:01:08;12.90;99.90
34768;DHT22;21755;43.608;1.236;2022-11-15T05:03:34;12.90;99.90
34768;DHT22;21755;43.608;1.236;2022-11-15T05:06:18;12.90;99.90
34768;DHT22;21755;43.608;1.236;2022-11-15T05:08:44;13.00;99.90
34768;DHT22;21755;43.608;1.236;2022-11-15T05:11:10;13.00;99.90
34768;DHT22;21755;43.608;1.236;2022-11-15T05:13:35;13.00;99.90
34768;DHT22;21755;43.608;1.236;2022-11-15T05:16:01;13.10;99.90
34768;DHT22;21755;43.608;1.236;2022-11-15T05:18:27;13.00;99.90
34768;DHT22;21755;43.608;1.236;2022-11-15T05:20:53;13.10;99.90
34768;DHT22;21755;43.608;1.236;2022-11-15T05:23:19;13.10;99.90
34768;DHT22;21755;43.608;1.236;2022-11-15T05:25:45;13.10;99.90
34768;DHT22;21755;43.608;1.236;2022-11-15T05:28:11;13.10;99.90
34768;DHT22;21755;43.608;1.236;2022-11-15T05:30:37;13.10;99.90
34768;DHT22;21755;43.608;1.236;2022-11-15T05:33:03;13.10;99.90
34768;DHT22;21755;43.608;1.236;2022-11-15T05:35:40;13.20;99.90
34768;DHT22;21755;43.608;1.236;2022-11-15T05:38:07;13.20;99.90
34768;DHT22;21755;43.608;1.236;2022-11-15T05:40:34;13.20;99.90
34768;DHT22;21755;43.608;1.236;2022-11-15T05:43:01;13.20;99.90
34768;DHT22;21755;43.608;1.236;2022-11-15T05:45:28;13.20;99.90
34768;DHT22;21755;43.608;1.236;2022-11-15T05:47:56;13.30;99.90
34768;DHT22;21755;43.608;1.236;2022-11-15T05:50:23;13.30;99.90
34768;DHT22;21755;43.608;1.236;2022-11-15T05:52:49;13.30;99.90
34768;DHT22;21755;43.608;1.236;2022-11-15T05:55:15;13.30;99.90
34768;DHT22;21755;43.608;1.236;2022-11-15T05:57:41;13.30;99.90
34768;DHT22;21755;43.608;1.236;2022-11-15T06:00:08;13.30;99.90
34768;DHT22;21755;43.608;1.236;2022-11-15T06:02:34;13.30;99.90
34768;DHT22;21755;43.608;1.236;2022-11-15T06:05:00;13.30;99.90
34768;DHT22;21755;43.608;1.236;2022-11-15T06:07:28;13.30;99.90
34768;DHT22;21755;43.608;1.236;2022-11-15T06:09:54;13.30;99.90
34768;DHT22;21755;43.608;1.236;2022-11-15T06:12:20;13.40;99.90
34768;DHT22;21755;43.608;1.236;2022-11-15T06:14:46;13.40;99.90
34768;DHT22;21755;43.608;1.236;2022-11-15T06:17:11;13.40;99.90
34768;DHT22;21755;43.608;1.236;2022-11-15T06:19:37;13.40;99.90
34768;DHT22;21755;43.608;1.236;2022-11-15T06:22:03;13.40;99.90
34768;DHT22;21755;43.608;1.236;2022-11-15T06:24:29;13.40;99.90
34768;DHT22;21755;43.608;1.236;2022-11-15T06:26:55;13.40;99.90
34768;DHT22;21755;43.608;1.236;2022-11-15T06:29:21;13.40;99.90
34768;DHT22;21755;43.608;1.236;2022-11-15T06:31:47;13.40;99.90
34768;DHT22;21755;43.608;1.236;2022-11-15T06:34:13;13.40;99.90
34768;DHT22;21755;43.608;1.236;2022-11-15T06:36:38;13.40;99.90
34768;DHT22;21755;43.608;1.236;2022-11-15T06:39:04;13.40;99.90
34768;DHT22;21755;43.608;1.236;2022-11-15T06:41:33;13.40;99.90
34768;DHT22;21755;43.608;1.236;2022-11-15T06:43:59;13.40;99.90
34768;DHT22;21755;43.608;1.236;2022-11-15T06:46:25;13.50;99.90
34768;DHT22;21755;43.608;1.236;2022-11-15T06:48:51;13.50;99.90
34768;DHT22;21755;43.608;1.236;2022-11-15T06:51:18;13.60;99.90
34768;DHT22;21755;43.608;1.236;2022-11-15T06:53:43;13.60;99.90
34768;DHT22;21755;43.608;1.236;2022-11-15T06:56:09;13.60;99.90
34768;DHT22;21755;43.608;1.236;2022-11-15T06:58:36;13.50;99.90
34768;DHT22;21755;43.608;1.236;2022-11-15T07:01:06;13.50;99.90
34768;DHT22;21755;43.608;1.236;2022-11-15T07:03:34;13.60;99.90
34768;DHT22;21755;43.608;1.236;2022-11-15T07:06:00;13.60;99.90
34768;DHT22;21755;43.608;1.236;2022-11-15T07:08:27;13.60;99.90
34768;DHT22;21755;43.608;1.236;2022-11-15T07:10:55;13.50;99.90
34768;DHT22;21755;43.608;1.236;2022-11-15T07:13:26;13.60;99.90
34768;DHT22;21755;43.608;1.236;2022-11-15T07:15:53;13.60;99.90
34768;DHT22;21755;43.608;1.236;2022-11-15T07:18:18;13.60;99.90
34768;DHT22;21755;43.608;1.236;2022-11-15T07:20:44;13.60;99.90
34768;DHT22;21755;43.608;1.236;2022-11-15T07:23:10;13.60;99.90
34768;DHT22;21755;43.608;1.236;2022-11-15T07:25:36;13.70;99.90
34768;DHT22;21755;43.608;1.236;2022-11-15T07:28:02;13.70;99.90
34768;DHT22;21755;43.608;1.236;2022-11-15T07:30:28;13.70;99.90
34768;DHT22;21755;43.608;1.236;2022-11-15T07:32:59;13.70;99.90
34768;DHT22;21755;43.608;1.236;2022-11-15T07:35:27;13.70;99.90
34768;DHT22;21755;43.608;1.236;2022-11-15T07:37:59;13.70;99.90
34768;DHT22;21755;43.608;1.236;2022-11-15T07:40:27;13.70;99.90
34768;DHT22;21755;43.608;1.236;2022-11-15T07:42:59;13.70;99.90
34768;DHT22;21755;43.608;1.236;2022-11-15T07:45:25;13.70;99.90
34768;DHT22;21755;43.608;1.236;2022-11-15T07:47:52;13.70;99.90
34768;DHT22;21755;43.608;1.236;2022-11-15T07:50:18;13.70;99.90
34768;DHT22;21755;43.608;1.236;2022-11-15T07:52:45;13.70;99.90
34768;DHT22;21755;43.608;1.236;2022-11-15T07:55:11;13.70;99.90
34768;DHT22;21755;43.608;1.236;2022-11-15T07:57:37;13.70;99.90
34768;DHT22;21755;43.608;1.236;2022-11-15T08:00:04;13.70;99.90
34768;DHT22;21755;43.608;1.236;2022-11-15T08:02:31;13.70;99.90
34768;DHT22;21755;43.608;1.236;2022-11-15T08:04:57;13.80;99.90
34768;DHT22;21755;43.608;1.236;2022-11-15T08:07:23;13.80;99.90
34768;DHT22;21755;43.608;1.236;2022-11-15T08:09:49;13.80;99.90
34768;DHT22;21755;43.608;1.236;2022-11-15T08:12:15;13.80;99.90
34768;DHT22;21755;43.608;1.236;2022-11-15T08:14:41;13.80;99.90
34768;DHT22;21755;43.608;1.236;2022-11-15T08:17:07;13.90;99.90
34768;DHT22;21755;43.608;1.236;2022-11-15T08:19:33;13.90;99.90
34768;DHT22;21755;43.608;1.236;2022-11-15T08:21:59;14.00;99.90
34768;DHT22;21755;43.608;1.236;2022-11-15T08:24:25;14.00;99.90
34768;DHT22;21755;43.608;1.236;2022-11-15T08:26:50;14.00;99.90
34768;DHT22;21755;43.608;1.236;2022-11-15T08:29:16;14.00;99.90
34768;DHT22;21755;43.608;1.236;2022-11-15T08:31:42;14.10;99.90
34768;DHT22;21755;43.608;1.236;2022-11-15T08:34:08;14.20;99.90
34768;DHT22;21755;43.608;1.236;2022-11-15T08:36:34;14.20;99.90
34768;DHT22;21755;43.608;1.236;2022-11-15T08:39:00;14.30;99.90
34768;DHT22;21755;43.608;1.236;2022-11-15T08:43:51;14.40;99.90
34768;DHT22;21755;43.608;1.236;2022-11-15T08:46:17;14.40;99.90
34768;DHT22;21755;43.608;1.236;2022-11-15T08:48:44;14.40;99.90
34768;DHT22;21755;43.608;1.236;2022-11-15T08:51:10;14.40;99.90
34768;DHT22;21755;43.608;1.236;2022-11-15T08:53:36;14.40;99.90
34768;DHT22;21755;43.608;1.236;2022-11-15T08:56:02;14.40;99.90
34768;DHT22;21755;43.608;1.236;2022-11-15T08:58:28;14.40;99.90
34768;DHT22;21755;43.608;1.236;2022-11-15T09:00:54;14.40;99.90
34768;DHT22;21755;43.608;1.236;2022-11-15T09:03:20;14.50;99.90
34768;DHT22;21755;43.608;1.236;2022-11-15T09:05:46;14.50;99.90
34768;DHT22;21755;43.608;1.236;2022-11-15T09:08:12;14.60;99.90
34768;DHT22;21755;43.608;1.236;2022-11-15T09:10:38;14.60;99.90
34768;DHT22;21755;43.608;1.236;2022-11-15T09:13:04;14.60;99.90
34768;DHT22;21755;43.608;1.236;2022-11-15T09:15:30;14.70;99.90
34768;DHT22;21755;43.608;1.236;2022-11-15T09:17:59;14.70;99.90
34768;DHT22;21755;43.608;1.236;2022-11-15T09:20:25;14.80;99.90
34768;DHT22;21755;43.608;1.236;2022-11-15T09:22:51;14.90;99.90
34768;DHT22;21755;43.608;1.236;2022-11-15T09:25:17;15.00;99.90
34768;DHT22;21755;43.608;1.236;2022-11-15T09:27:42;15.10;99.90
34768;DHT22;21755;43.608;1.236;2022-11-15T09:30:09;15.30;99.90
34768;DHT22;21755;43.608;1.236;2022-11-15T09:32:35;15.30;99.90
34768;DHT22;21755;43.608;1.236;2022-11-15T09:35:01;15.30;99.90
34768;DHT22;21755;43.608;1.236;2022-11-15T09:37:26;15.20;99.90
34768;DHT22;21755;43.608;1.236;2022-11-15T09:39:52;15.20;99.90
34768;DHT22;21755;43.608;1.236;2022-11-15T09:49:55;15.20;99.90
34768;DHT22;21755;43.608;1.236;2022-11-15T09:52:23;15.20;99.90
34768;DHT22;21755;43.608;1.236;2022-11-15T09:54:51;15.30;99.90
34768;DHT22;21755;43.608;1.236;2022-11-15T09:57:47;15.30;99.90
34768;DHT22;21755;43.608;1.236;2022-11-15T10:05:23;15.50;99.90
34768;DHT22;21755;43.608;1.236;2022-11-15T10:13:06;15.80;99.90
34768;DHT22;21755;43.608;1.236;2022-11-15T10:15:35;16.10;99.90
34768;DHT22;21755;43.608;1.236;2022-11-15T10:20:59;16.60;99.90
34768;DHT22;21755;43.608;1.236;2022-11-15T10:23:27;16.70;99.90
34768;DHT22;21755;43.608;1.236;2022-11-15T10:25:57;16.70;99.90
34768;DHT22;21755;43.608;1.236;2022-11-15T10:28:28;16.70;99.90
34768;DHT22;21755;43.608;1.236;2022-11-15T10:30:59;16.60;99.90
34768;DHT22;21755;43.608;1.236;2022-11-15T10:36:21;16.70;99.90
34768;DHT22;21755;43.608;1.236;2022-11-15T10:41:19;16.90;99.90
34768;DHT22;21755;43.608;1.236;2022-11-15T10:46:38;16.90;99.90
34768;DHT22;21755;43.608;1.236;2022-11-15T10:49:23;16.90;99.90
34768;DHT22;21755;43.608;1.236;2022-11-15T10:54:42;16.90;99.90
34768;DHT22;21755;43.608;1.236;2022-11-15T10:57:22;16.90;99.90
34768;DHT22;21755;43.608;1.236;2022-11-15T11:00:33;16.90;99.90
34768;DHT22;21755;43.608;1.236;2022-11-15T11:02:45;16.90;99.90
34768;DHT22;21755;43.608;1.236;2022-11-15T11:05:30;16.80;99.90
34768;DHT22;21755;43.608;1.236;2022-11-15T11:08:00;16.80;99.90
34768;DHT22;21755;43.608;1.236;2022-11-15T11:10:27;16.80;99.90
34768;DHT22;21755;43.608;1.236;2022-11-15T11:12:53;16.90;99.90
34768;DHT22;21755;43.608;1.236;2022-11-15T11:15:19;17.00;99.90
34768;DHT22;21755;43.608;1.236;2022-11-15T11:17:55;17.10;99.90
34768;DHT22;21755;43.608;1.236;2022-11-15T11:26:17;17.40;99.90
34768;DHT22;21755;43.608;1.236;2022-11-15T11:31:58;17.50;99.90
34768;DHT22;21755;43.608;1.236;2022-11-15T11:37:24;17.60;99.90
34768;DHT22;21755;43.608;1.236;2022-11-15T11:48:25;17.50;99.90
34768;DHT22;21755;43.608;1.236;2022-11-15T11:51:03;17.50;99.90
34768;DHT22;21755;43.608;1.236;2022-11-15T11:53:39;17.50;99.90
34768;DHT22;21755;43.608;1.236;2022-11-15T11:56:29;17.50;99.90
34768;DHT22;21755;43.608;1.236;2022-11-15T11:59:09;17.60;99.90
34768;DHT22;21755;43.608;1.236;2022-11-15T12:01:45;17.70;99.90
34768;DHT22;21755;43.608;1.236;2022-11-15T12:06:57;17.80;99.90
34768;DHT22;21755;43.608;1.236;2022-11-15T12:09:43;17.80;99.90
34768;DHT22;21755;43.608;1.236;2022-11-15T12:12:39;17.80;99.90
34768;DHT22;21755;43.608;1.236;2022-11-15T12:15:15;17.80;99.90
34768;DHT22;21755;43.608;1.236;2022-11-15T12:17:42;17.90;99.90
34768;DHT22;21755;43.608;1.236;2022-11-15T12:20:26;17.90;99.90
34768;DHT22;21755;43.608;1.236;2022-11-15T12:23:01;17.90;99.90
34768;DHT22;21755;43.608;1.236;2022-11-15T12:25:54;17.90;99.90
34768;DHT22;21755;43.608;1.236;2022-11-15T12:33:42;17.90;99.90
34768;DHT22;21755;43.608;1.236;2022-11-15T12:39:02;17.80;99.90
34768;DHT22;21755;43.608;1.236;2022-11-15T12:41:30;17.80;99.90
34768;DHT22;21755;43.608;1.236;2022-11-15T12:43:57;17.80;99.90
34768;DHT22;21755;43.608;1.236;2022-11-15T12:49:48;17.80;99.90
34768;DHT22;21755;43.608;1.236;2022-11-15T13:02:21;17.60;99.90
34768;DHT22;21755;43.608;1.236;2022-11-15T13:04:49;17.80;99.90
34768;DHT22;21755;43.608;1.236;2022-11-15T13:07:56;17.80;99.90
34768;DHT22;21755;43.608;1.236;2022-11-15T13:15:34;18.00;99.90
34768;DHT22;21755;43.608;1.236;2022-11-15T13:18:26;17.90;99.90
34768;DHT22;21755;43.608;1.236;2022-11-15T13:20:53;17.90;99.90
34768;DHT22;21755;43.608;1.236;2022-11-15T13:23:21;17.90;99.90
34768;DHT22;21755;43.608;1.236;2022-11-15T13:26:10;17.90;99.90
34768;DHT22;21755;43.608;1.236;2022-11-15T13:31:27;17.90;99.90
34768;DHT22;21755;43.608;1.236;2022-11-15T13:33:56;17.90;99.90
34768;DHT22;21755;43.608;1.236;2022-11-15T13:36:28;17.90;99.90
34768;DHT22;21755;43.608;1.236;2022-11-15T13:39:11;17.90;99.90
34768;DHT22;21755;43.608;1.236;2022-11-15T13:41:47;17.80;99.90
34768;DHT22;21755;43.608;1.236;2022-11-15T13:44:23;17.80;99.90
34768;DHT22;21755;43.608;1.236;2022-11-15T13:47:01;17.80;99.90
34768;DHT22;21755;43.608;1.236;2022-11-15T13:49:32;17.80;99.90
34768;DHT22;21755;43.608;1.236;2022-11-15T13:52:00;17.70;99.90
34768;DHT22;21755;43.608;1.236;2022-11-15T13:57:25;17.70;99.90
34768;DHT22;21755;43.608;1.236;2022-11-15T13:59:55;17.60;99.90
34768;DHT22;21755;43.608;1.236;2022-11-15T14:02:31;17.60;99.90
34768;DHT22;21755;43.608;1.236;2022-11-15T14:05:19;17.50;99.90
34768;DHT22;21755;43.608;1.236;2022-11-15T14:10:31;17.50;99.90
34768;DHT22;21755;43.608;1.236;2022-11-15T14:12:58;17.50;99.90
34768;DHT22;21755;43.608;1.236;2022-11-15T14:15:32;17.50;99.90
34768;DHT22;21755;43.608;1.236;2022-11-15T14:17:59;17.50;99.90
34768;DHT22;21755;43.608;1.236;2022-11-15T14:22:57;17.40;99.90
34768;DHT22;21755;43.608;1.236;2022-11-15T14:25:25;17.40;99.90
34768;DHT22;21755;43.608;1.236;2022-11-15T14:30:52;17.30;99.90
34768;DHT22;21755;43.608;1.236;2022-11-15T14:33:30;17.30;99.90
34768;DHT22;21755;43.608;1.236;2022-11-15T14:36:01;17.30;99.90
34768;DHT22;21755;43.608;1.236;2022-11-15T14:38:28;17.20;99.90
34768;DHT22;21755;43.608;1.236;2022-11-15T14:40:54;17.20;99.90
34768;DHT22;21755;43.608;1.236;2022-11-15T14:43:21;17.10;99.90
34768;DHT22;21755;43.608;1.236;2022-11-15T14:45:47;17.00;99.90
34768;DHT22;21755;43.608;1.236;2022-11-15T14:48:13;17.00;99.90
34768;DHT22;21755;43.608;1.236;2022-11-15T14:50:39;16.80;99.90
34768;DHT22;21755;43.608;1.236;2022-11-15T14:53:05;16.80;99.90
34768;DHT22;21755;43.608;1.236;2022-11-15T14:55:34;16.70;99.90
34768;DHT22;21755;43.608;1.236;2022-11-15T14:58:04;16.60;99.90
34768;DHT22;21755;43.608;1.236;2022-11-15T15:00:31;16.60;99.90
34768;DHT22;21755;43.608;1.236;2022-11-15T15:02:57;16.60;99.90
34768;DHT22;21755;43.608;1.236;2022-11-15T15:08:02;16.50;99.90
34768;DHT22;21755;43.608;1.236;2022-11-15T15:10:33;16.50;99.90
34768;DHT22;21755;43.608;1.236;2022-11-15T15:12:59;16.50;99.90
34768;DHT22;21755;43.608;1.236;2022-11-15T15:15:31;16.50;99.90
34768;DHT22;21755;43.608;1.236;2022-11-15T15:17:57;16.50;99.90
34768;DHT22;21755;43.608;1.236;2022-11-15T15:20:22;16.50;99.90
34768;DHT22;21755;43.608;1.236;2022-11-15T15:22:48;16.50;99.90
34768;DHT22;21755;43.608;1.236;2022-11-15T15:27:46;16.50;99.90
34768;DHT22;21755;43.608;1.236;2022-11-15T15:30:12;16.50;99.90
34768;DHT22;21755;43.608;1.236;2022-11-15T15:32:38;16.40;99.90
34768;DHT22;21755;43.608;1.236;2022-11-15T15:35:04;16.40;99.90
34768;DHT22;21755;43.608;1.236;2022-11-15T15:37:31;16.40;99.90
34768;DHT22;21755;43.608;1.236;2022-11-15T15:39:58;16.30;99.90
34768;DHT22;21755;43.608;1.236;2022-11-15T15:42:25;16.30;99.90
34768;DHT22;21755;43.608;1.236;2022-11-15T15:44:51;16.30;99.90
34768;DHT22;21755;43.608;1.236;2022-11-15T15:47:22;16.30;99.90
34768;DHT22;21755;43.608;1.236;2022-11-15T15:49:49;16.20;99.90
34768;DHT22;21755;43.608;1.236;2022-11-15T15:52:16;16.20;99.90
34768;DHT22;21755;43.608;1.236;2022-11-15T15:54:43;16.20;99.90
34768;DHT22;21755;43.608;1.236;2022-11-15T15:57:11;16.20;99.90
34768;DHT22;21755;43.608;1.236;2022-11-15T15:59:38;16.20;99.90
34768;DHT22;21755;43.608;1.236;2022-11-15T16:02:06;16.10;99.90
34768;DHT22;21755;43.608;1.236;2022-11-15T16:04:32;16.10;99.90
34768;DHT22;21755;43.608;1.236;2022-11-15T16:06:59;16.10;99.90
34768;DHT22;21755;43.608;1.236;2022-11-15T16:09:25;16.00;99.90
34768;DHT22;21755;43.608;1.236;2022-11-15T16:12:30;16.00;99.90
34768;DHT22;21755;43.608;1.236;2022-11-15T16:14:57;16.00;99.90
34768;DHT22;21755;43.608;1.236;2022-11-15T16:17:26;16.00;99.90
34768;DHT22;21755;43.608;1.236;2022-11-15T16:19:52;15.90;99.90
34768;DHT22;21755;43.608;1.236;2022-11-15T16:22:18;15.90;99.90
34768;DHT22;21755;43.608;1.236;2022-11-15T16:24:44;15.90;99.90
34768;DHT22;21755;43.608;1.236;2022-11-15T16:27:18;15.80;99.90
34768;DHT22;21755;43.608;1.236;2022-11-15T16:29:45;15.80;99.90
34768;DHT22;21755;43.608;1.236;2022-11-15T16:32:11;15.70;99.90
34768;DHT22;21755;43.608;1.236;2022-11-15T16:34:37;15.70;99.90
34768;DHT22;21755;43.608;1.236;2022-11-15T16:37:04;15.60;99.90
34768;DHT22;21755;43.608;1.236;2022-11-15T16:39:30;15.70;99.90
34768;DHT22;21755;43.608;1.236;2022-11-15T16:41:59;15.60;99.90
34768;DHT22;21755;43.608;1.236;2022-11-15T16:44:26;15.60;99.90
34768;DHT22;21755;43.608;1.236;2022-11-15T16:46:53;15.60;99.90
34768;DHT22;21755;43.608;1.236;2022-11-15T16:49:20;15.50;99.90
34768;DHT22;21755;43.608;1.236;2022-11-15T16:51:48;15.50;99.90
34768;DHT22;21755;43.608;1.236;2022-11-15T16:56:48;15.40;99.90
34768;DHT22;21755;43.608;1.236;2022-11-15T16:59:15;15.40;99.90
34768;DHT22;21755;43.608;1.236;2022-11-15T17:01:42;15.40;99.90
34768;DHT22;21755;43.608;1.236;2022-11-15T17:04:16;15.40;99.90
34768;DHT22;21755;43.608;1.236;2022-11-15T17:06:45;15.40;99.90
34768;DHT22;21755;43.608;1.236;2022-11-15T17:09:17;15.40;99.90
34768;DHT22;21755;43.608;1.236;2022-11-15T17:11:43;15.40;99.90
34768;DHT22;21755;43.608;1.236;2022-11-15T17:14:10;15.40;99.90
34768;DHT22;21755;43.608;1.236;2022-11-15T17:16:36;15.30;99.90
34768;DHT22;21755;43.608;1.236;2022-11-15T17:19:27;15.30;99.90
34768;DHT22;21755;43.608;1.236;2022-11-15T17:21:52;15.20;99.90
34768;DHT22;21755;43.608;1.236;2022-11-15T17:24:18;15.20;99.90
34768;DHT22;21755;43.608;1.236;2022-11-15T17:26:45;15.10;99.90
34768;DHT22;21755;43.608;1.236;2022-11-15T17:29:11;15.10;99.90
34768;DHT22;21755;43.608;1.236;2022-11-15T17:31:37;15.00;99.90
34768;DHT22;21755;43.608;1.236;2022-11-15T17:34:04;15.00;99.90
34768;DHT22;21755;43.608;1.236;2022-11-15T17:36:30;15.00;99.90
34768;DHT22;21755;43.608;1.236;2022-11-15T17:38:56;15.00;99.90
34768;DHT22;21755;43.608;1.236;2022-11-15T17:41:22;14.90;99.90
34768;DHT22;21755;43.608;1.236;2022-11-15T17:43:49;14.90;99.90
34768;DHT22;21755;43.608;1.236;2022-11-15T17:46:17;14.90;99.90
34768;DHT22;21755;43.608;1.236;2022-11-15T17:48:44;14.80;99.90
34768;DHT22;21755;43.608;1.236;2022-11-15T17:51:12;14.80;99.90
34768;DHT22;21755;43.608;1.236;2022-11-15T17:53:40;14.80;99.90
34768;DHT22;21755;43.608;1.236;2022-11-15T17:56:09;14.80;99.90